Time;durP1;ratioP1;P1;durP2;ratioP2;P2;SDS_P1;SDS_P2;PMS_P1;PMS_P2;Temp;Humidity;BMP_temperature;BMP_pressure;BME280_temperature;BME280_humidity;BME280_pressure;Samples;Min_cycle;Max_cycle;Signal;HPM_P1;HPM_P2
2022/10/05 00:01:41;;;;;;;3.53;2.93;;;;;;;7.71;100.00;101234.91;5037992;28;20253;-72
2022/10/05 00:04:14;;;;;;;7.63;3.07;;;;;;;7.66;100.00;101226.28;5069365;28;20215;-72
2022/10/05 00:06:41;;;;;;;5.93;3.30;;;;;;;7.64;100.00;101230.63;5051198;28;20221;-72
2022/10/05 00:09:13;;;;;;;5.10;3.13;;;;;;;7.62;100.00;101232.38;5058303;28;20255;-72
2022/10/05 00:11:39;;;;;;;4.07;3.03;;;;;;;7.59;100.00;101235.81;5064907;28;20194;-72
2022/10/05 00:14:14;;;;;;;3.33;2.93;;;;;;;7.57;100.00;101227.19;5066023;28;20213;-71
2022/10/05 00:16:42;;;;;;;5.90;3.47;;;;;;;7.57;100.00;101224.59;5073267;28;20234;-71
2022/10/05 00:19:15;;;;;;;9.03;3.33;;;;;;;7.61;100.00;101222.84;5076526;28;20202;-71
2022/10/05 00:21:42;;;;;;;4.53;3.00;;;;;;;7.61;100.00;101221.09;5069929;28;20236;-71
2022/10/05 00:24:10;;;;;;;3.57;2.80;;;;;;;7.69;100.00;101216.75;5062810;28;20202;-71
2022/10/05 00:26:36;;;;;;;3.27;2.63;;;;;;;7.70;100.00;101223.66;5063871;28;20562;-71
2022/10/05 00:29:19;;;;;;;7.07;3.40;;;;;;;7.71;100.00;101227.97;5061888;28;20220;-71
2022/10/05 00:31:47;;;;;;;3.83;3.13;;;;;;;7.69;100.00;101221.94;5057063;28;20196;-72
2022/10/05 00:34:14;;;;;;;5.33;2.87;;;;;;;7.64;100.00;101213.31;5040299;28;20433;-73
2022/10/05 00:36:42;;;;;;;3.27;2.90;;;;;;;7.62;100.00;101220.25;5055478;28;20228;-72
2022/10/05 00:39:09;;;;;;;5.20;3.33;;;;;;;7.62;100.00;101219.38;5062140;28;20219;-72
2022/10/05 00:41:59;;;;;;;6.47;3.13;;;;;;;7.57;100.00;101222.84;5031671;28;20653;-71
2022/10/05 00:44:36;;;;;;;3.17;2.87;;;;;;;7.53;100.00;101222.88;5043995;28;20201;-71
2022/10/05 00:47:18;;;;;;;6.30;2.93;;;;;;;7.52;100.00;101219.41;5051044;28;20207;-71
2022/10/05 00:50:01;;;;;;;5.30;2.90;;;;;;;7.49;100.00;101223.75;5050856;28;20192;-71
2022/10/05 00:52:34;;;;;;;3.90;2.97;;;;;;;7.45;100.00;101227.22;5049772;28;20197;-71
2022/10/05 00:55:12;;;;;;;3.27;2.97;;;;;;;7.41;100.00;101225.53;5050203;28;20561;-72
2022/10/05 00:57:48;;;;;;;2.90;2.50;;;;;;;7.38;100.00;101227.25;5067450;28;20301;-71
2022/10/05 01:00:18;;;;;;;3.33;2.53;;;;;;;7.34;100.00;101224.69;5050814;28;20201;-71
2022/10/05 01:02:53;;;;;;;4.33;3.00;;;;;;;7.30;100.00;101230.72;5070798;28;20208;-71
2022/10/05 01:05:38;;;;;;;4.70;2.80;;;;;;;7.29;100.00;101226.41;5066976;28;20744;-71
2022/10/05 01:08:16;;;;;;;3.40;2.97;;;;;;;7.26;100.00;101216.03;5066758;28;20200;-73
2022/10/05 01:10:47;;;;;;;3.80;2.90;;;;;;;7.26;100.00;101213.44;5062253;28;20865;-70
2022/10/05 01:13:26;;;;;;;4.63;2.77;;;;;;;7.27;100.00;101216.03;5054344;28;20303;-71
2022/10/05 01:16:03;;;;;;;4.83;2.97;;;;;;;7.26;100.00;101211.72;5049760;28;20224;-71
2022/10/05 01:18:38;;;;;;;7.10;2.93;;;;;;;7.26;100.00;101216.91;5054204;28;20204;-71
2022/10/05 01:21:14;;;;;;;4.90;2.60;;;;;;;7.29;100.00;101205.66;5070872;28;20204;-71
2022/10/05 01:24:13;;;;;;;4.60;2.60;;;;;;;7.27;100.00;101207.41;5070769;28;20796;-71
2022/10/05 01:27:15;;;;;;;6.60;2.50;;;;;;;7.26;100.00;101203.94;5059333;28;20734;-72
2022/10/05 01:29:49;;;;;;;3.53;2.73;;;;;;;7.27;100.00;101203.06;5063341;28;20698;-72
2022/10/05 01:32:25;;;;;;;5.17;3.23;;;;;;;7.24;100.00;101187.50;5070686;28;20210;-72
2022/10/05 01:34:59;;;;;;;4.20;2.73;;;;;;;7.24;100.00;101186.66;5070867;28;20290;-72
2022/10/05 01:37:31;;;;;;;3.60;3.17;;;;;;;7.21;100.00;101177.16;5072417;28;20829;-72
2022/10/05 01:40:07;;;;;;;5.10;2.83;;;;;;;7.14;100.00;101188.41;5072062;28;20203;-72
2022/10/05 01:42:43;;;;;;;5.67;2.73;;;;;;;7.07;100.00;101203.16;5053669;28;20218;-72
2022/10/05 01:45:17;;;;;;;6.00;3.07;;;;;;;7.05;100.00;101211.78;5054415;28;20723;-72
2022/10/05 01:47:45;;;;;;;7.00;2.80;;;;;;;7.01;100.00;101209.19;5071829;28;20202;-72
2022/10/05 01:50:22;;;;;;;3.37;2.53;;;;;;;6.99;100.00;101204.88;5070072;28;20199;-72
2022/10/05 01:53:00;;;;;;;2.77;2.37;;;;;;;6.98;100.00;101203.13;5064375;28;20678;-73
2022/10/05 01:55:35;;;;;;;6.40;2.70;;;;;;;6.93;100.00;101200.56;5053742;28;20218;-72
2022/10/05 01:58:14;;;;;;;3.50;2.83;;;;;;;6.88;100.00;101204.03;5052236;28;20207;-72
2022/10/05 02:00:49;;;;;;;5.50;3.00;;;;;;;6.80;100.00;101210.09;5054436;28;20796;-72
2022/10/05 02:03:19;;;;;;;3.83;2.57;;;;;;;6.80;100.00;101219.59;5077729;28;20206;-72
2022/10/05 02:05:51;;;;;;;2.90;2.60;;;;;;;6.75;100.00;101213.53;5072290;23;20660;-71
2022/10/05 02:08:23;;;;;;;6.27;2.90;;;;;;;6.72;100.00;101218.72;4996728;28;20201;-71
2022/10/05 02:10:59;;;;;;;3.40;2.57;;;;;;;6.70;100.00;101228.22;5007891;28;20666;-71
2022/10/05 02:13:32;;;;;;;2.77;2.33;;;;;;;6.64;100.00;101226.50;4995160;28;20198;-71
2022/10/05 02:16:03;;;;;;;4.93;2.80;;;;;;;6.68;100.00;101227.38;4993121;28;20225;-71
2022/10/05 02:18:33;;;;;;;2.63;2.10;;;;;;;6.62;100.00;101207.53;4993510;28;20326;-71
2022/10/05 02:21:05;;;;;;;6.10;2.70;;;;;;;6.62;100.00;101202.34;5010098;28;20193;-70
2022/10/05 02:23:36;;;;;;;3.47;2.40;;;;;;;6.64;100.00;101200.59;4994178;28;20714;-71
2022/10/05 02:26:04;;;;;;;3.13;2.40;;;;;;;6.57;100.00;101198.88;5010488;28;20219;-71
2022/10/05 02:28:36;;;;;;;7.93;2.50;;;;;;;6.54;100.00;101199.72;5009650;28;20473;-71
2022/10/05 02:31:10;;;;;;;3.23;2.83;;;;;;;6.55;100.00;101204.06;4992625;28;20590;-71
2022/10/05 02:33:37;;;;;;;3.30;2.67;;;;;;;6.51;100.00;101201.47;5012466;28;20569;-71
2022/10/05 02:36:14;;;;;;;2.83;2.30;;;;;;;6.49;100.00;101190.25;4995583;28;20226;-71
2022/10/05 02:38:59;;;;;;;3.10;2.60;;;;;;;6.46;100.00;101192.84;5006433;28;20295;-71
2022/10/05 02:41:42;;;;;;;2.50;2.20;;;;;;;6.47;100.00;101195.41;4990735;28;20296;-71
2022/10/05 02:44:19;;;;;;;5.63;2.43;;;;;;;6.45;100.00;101194.56;5007669;28;20257;-70
2022/10/05 02:46:55;;;;;;;2.83;2.37;;;;;;;6.42;100.00;101194.56;5016153;28;20303;-71
2022/10/05 02:49:29;;;;;;;3.03;2.40;;;;;;;6.35;100.00;101198.91;4991335;28;20638;-71
2022/10/05 02:52:02;;;;;;;4.60;2.00;;;;;;;6.34;100.00;101202.34;4991426;28;20196;-71
2022/10/05 02:54:42;;;;;;;3.70;2.83;;;;;;;6.40;100.00;101207.53;5004872;28;20216;-71
2022/10/05 02:57:16;;;;;;;5.00;2.63;;;;;;;6.40;100.00;101209.22;4989629;28;20236;-71
2022/10/05 02:59:47;;;;;;;2.37;2.07;;;;;;;6.46;100.00;101216.16;5011003;28;20228;-71
2022/10/05 03:02:21;;;;;;;4.13;2.50;;;;;;;6.45;100.00;101215.28;4988897;28;20216;-70
2022/10/05 03:04:58;;;;;;;3.87;2.50;;;;;;;6.45;100.00;101212.69;5010471;28;20200;-71
2022/10/05 03:07:31;;;;;;;2.77;2.30;;;;;;;6.37;100.00;101207.53;5004247;28;20756;-71
2022/10/05 03:10:09;;;;;;;2.73;2.30;;;;;;;6.31;100.00;101215.28;5004237;28;20613;-71
2022/10/05 03:12:51;;;;;;;3.70;2.70;;;;;;;6.31;100.00;101211.81;5010996;28;20609;-70
2022/10/05 03:15:31;;;;;;;2.77;2.30;;;;;;;6.33;100.00;101215.28;4990786;28;20589;-71
2022/10/05 03:18:12;;;;;;;3.00;2.53;;;;;;;6.30;100.00;101216.16;4989881;28;20674;-70
2022/10/05 03:20:47;;;;;;;3.27;2.27;;;;;;;6.20;100.00;101215.25;4992279;28;20196;-70
2022/10/05 03:23:23;;;;;;;2.17;1.97;;;;;;;6.17;100.00;101219.56;4988578;28;20315;-70
2022/10/05 03:26:12;;;;;;;3.43;2.30;;;;;;;6.14;100.00;101222.16;5010468;28;20880;-70
2022/10/05 03:28:48;;;;;;;4.17;2.13;;;;;;;6.04;100.00;101221.28;5003696;28;20413;-71
2022/10/05 03:31:22;;;;;;;3.23;2.57;;;;;;;6.05;100.00;101218.72;5005051;28;20201;-71
2022/10/05 03:33:54;;;;;;;2.53;2.23;;;;;;;6.12;100.00;101223.88;4992447;28;20192;-70
2022/10/05 03:36:29;;;;;;;2.30;1.97;;;;;;;6.04;100.00;101221.28;4993319;28;20290;-70
2022/10/05 03:39:03;;;;;;;3.27;2.23;;;;;;;6.03;100.00;101223.03;5006205;28;20760;-70
2022/10/05 03:41:37;;;;;;;2.40;2.20;;;;;;;6.04;100.00;101210.94;5004970;28;20204;-70
2022/10/05 03:44:23;;;;;;;2.23;1.83;;;;;;;6.00;100.00;101209.22;4988548;28;20295;-71
2022/10/05 03:47:05;;;;;;;3.60;1.90;;;;;;;5.92;100.00;101216.91;4990640;28;20247;-70
2022/10/05 03:49:42;;;;;;;3.17;1.47;;;;;;;5.90;100.00;101226.41;5011355;28;20212;-71
2022/10/05 03:52:13;;;;;;;2.10;1.70;;;;;;;5.92;100.00;101226.41;4987975;28;20250;-70
2022/10/05 03:54:45;;;;;;;2.40;2.10;;;;;;;5.96;100.00;101222.97;5003945;28;20196;-71
2022/10/05 03:57:16;;;;;;;2.43;2.00;;;;;;;5.90;100.00;101225.53;5006703;28;20247;-70
2022/10/05 03:59:54;;;;;;;3.13;1.70;;;;;;;5.88;100.00;101213.44;4992626;28;20256;-70
2022/10/05 04:02:26;;;;;;;1.60;1.50;;;;;;;5.83;100.00;101209.97;5007949;28;20204;-71
2022/10/05 04:05:00;;;;;;;1.77;1.63;;;;;;;5.86;100.00;101211.72;4996545;28;20212;-71
2022/10/05 04:07:42;;;;;;;3.13;2.27;;;;;;;5.86;100.00;101206.56;5009467;28;20307;-70
2022/10/05 04:10:14;;;;;;;4.87;1.80;;;;;;;5.78;100.00;101193.56;5001007;28;20255;-71
2022/10/05 04:12:46;;;;;;;3.10;2.00;;;;;;;5.75;100.00;101197.88;5004828;28;20196;-71
2022/10/05 04:15:18;;;;;;;1.57;1.47;;;;;;;5.80;100.00;101199.59;4987950;28;20224;-70
2022/10/05 04:17:49;;;;;;;4.27;1.73;;;;;;;5.84;100.00;101203.97;5004733;28;20204;-70
2022/10/05 04:20:22;;;;;;;3.90;1.97;;;;;;;5.83;100.00;101198.78;4988709;28;20689;-71
2022/10/05 04:22:53;;;;;;;1.60;1.47;;;;;;;5.80;100.00;101196.16;5003547;28;20209;-71
2022/10/05 04:25:24;;;;;;;2.43;1.93;;;;;;;5.82;100.00;101203.09;4999542;28;20234;-71
2022/10/05 04:27:58;;;;;;;2.47;1.87;;;;;;;5.85;100.00;101199.63;4988249;28;20251;-70
2022/10/05 04:30:25;;;;;;;2.17;1.80;;;;;;;5.84;100.00;101195.31;5008665;28;20228;-71
2022/10/05 04:32:56;;;;;;;2.00;1.80;;;;;;;5.78;100.00;101197.91;5005798;28;20530;-71
2022/10/05 04:35:48;;;;;;;2.30;2.10;;;;;;;5.76;100.00;101192.72;4996642;28;20279;-71
2022/10/05 04:38:40;;;;;;;1.63;1.53;;;;;;;5.70;100.00;101197.88;4989570;28;20215;-71
2022/10/05 04:41:24;;;;;;;2.03;1.80;;;;;;;5.75;100.00;101193.59;4995099;28;20200;-71
2022/10/05 04:44:10;;;;;;;2.03;1.80;;;;;;;5.85;100.00;101186.69;4987532;28;20227;-71
2022/10/05 04:46:52;;;;;;;1.73;1.63;;;;;;;5.78;100.00;101187.53;4995852;28;20225;-71
2022/10/05 04:49:35;;;;;;;2.27;2.03;;;;;;;5.82;100.00;101190.16;5001440;28;20215;-71
2022/10/05 04:52:12;;;;;;;2.00;1.70;;;;;;;5.84;100.00;101185.84;4989210;28;20747;-71
2022/10/05 04:54:52;;;;;;;1.63;1.40;;;;;;;5.88;100.00;101181.53;5006896;28;20222;-71
2022/10/05 04:57:24;;;;;;;2.00;1.80;;;;;;;5.87;100.00;101183.28;5007724;28;20204;-71
2022/10/05 05:00:21;;;;;;;2.07;1.63;;;;;;;5.91;100.00;101189.31;4990448;28;20520;-71
2022/10/05 05:03:06;;;;;;;2.13;1.73;;;;;;;5.90;100.00;101184.97;4987886;28;20216;-70
2022/10/05 05:05:46;;;;;;;4.30;1.70;;;;;;;5.94;100.00;101186.72;4990329;28;20231;-71
2022/10/05 05:08:29;;;;;;;3.07;1.90;;;;;;;5.99;100.00;101181.59;4999630;28;20215;-71
2022/10/05 05:11:09;;;;;;;2.17;1.57;;;;;;;5.99;100.00;101187.63;5002326;28;20201;-71
2022/10/05 05:13:58;;;;;;;2.10;1.90;;;;;;;6.03;100.00;101188.47;5001023;28;20635;-71
2022/10/05 05:16:32;;;;;;;2.27;2.07;;;;;;;6.04;100.00;101193.66;5004966;28;20237;-71
2022/10/05 05:19:16;;;;;;;2.53;2.30;;;;;;;6.03;100.00;101194.53;4989131;28;20298;-70
2022/10/05 05:21:51;;;;;;;2.13;1.73;;;;;;;6.08;100.00;101189.34;5002788;28;20196;-71
2022/10/05 05:24:26;;;;;;;2.30;2.10;;;;;;;6.11;100.00;101184.19;5004830;28;20216;-71
2022/10/05 05:27:10;;;;;;;2.37;2.07;;;;;;;6.16;100.00;101173.84;5022590;28;20216;-71
2022/10/05 05:29:50;;;;;;;3.30;2.33;;;;;;;6.16;100.00;101176.44;5022112;28;20283;-70
2022/10/05 05:32:23;;;;;;;2.97;2.37;;;;;;;6.20;100.00;101178.16;5007118;28;20577;-71
2022/10/05 05:35:08;;;;;;;2.97;1.73;;;;;;;6.27;100.00;101179.03;5006147;28;20209;-71
2022/10/05 05:37:39;;;;;;;2.63;2.13;;;;;;;6.29;100.00;101178.16;4999798;28;20202;-70
2022/10/05 05:40:15;;;;;;;3.67;2.20;;;;;;;6.38;100.00;101174.69;5006133;28;20236;-71
2022/10/05 05:42:53;;;;;;;3.83;2.20;;;;;;;6.41;100.00;101169.53;4996495;28;20225;-71
2022/10/05 05:45:28;;;;;;;4.77;2.77;;;;;;;6.41;100.00;101172.13;4988476;28;20655;-70
2022/10/05 05:47:59;;;;;;;2.47;2.20;;;;;;;6.42;100.00;101171.25;5003957;28;20403;-70
2022/10/05 05:50:42;;;;;;;2.83;1.80;;;;;;;6.40;100.00;101181.63;5005128;28;20441;-71
2022/10/05 05:53:14;;;;;;;2.40;2.20;;;;;;;6.41;100.00;101169.53;5004017;28;20204;-71
2022/10/05 05:55:47;;;;;;;2.03;1.83;;;;;;;6.42;100.00;101174.72;5014160;28;20223;-70
2022/10/05 05:58:21;;;;;;;3.00;2.20;;;;;;;6.44;100.00;101169.53;5007583;28;20193;-70
2022/10/05 06:00:52;;;;;;;2.40;1.97;;;;;;;6.49;100.00;101167.81;5026056;28;20200;-71
2022/10/05 06:03:24;;;;;;;3.10;2.50;;;;;;;6.56;100.00;101168.66;5008564;28;21307;-71
2022/10/05 06:05:55;;;;;;;3.57;2.10;;;;;;;6.60;100.00;101178.16;4998010;28;20228;-71
2022/10/05 06:08:29;;;;;;;5.70;2.63;;;;;;;6.62;100.00;101182.47;5014074;28;20226;-71
2022/10/05 06:11:09;;;;;;;2.73;2.07;;;;;;;6.68;100.00;101175.56;5029452;28;20353;-71
2022/10/05 06:13:40;;;;;;;3.60;2.50;;;;;;;6.74;100.00;101181.59;5017967;28;20207;-71
2022/10/05 06:16:17;;;;;;;3.07;2.47;;;;;;;6.83;100.00;101180.72;5011882;28;20719;-70
2022/10/05 06:18:48;;;;;;;3.23;2.20;;;;;;;6.91;100.00;101176.41;5026895;28;20748;-70
2022/10/05 06:21:21;;;;;;;3.73;2.43;;;;;;;7.02;100.00;101171.19;5012658;28;20498;-71
2022/10/05 06:23:55;;;;;;;2.77;2.50;;;;;;;7.17;100.00;101167.66;5004431;28;20223;-71
2022/10/05 06:26:39;;;;;;;4.33;2.20;;;;;;;7.29;100.00;101161.56;5032269;28;20304;-71
2022/10/05 06:29:14;;;;;;;2.30;2.10;;;;;;;7.48;100.00;101157.16;5003569;28;20224;-70
2022/10/05 06:31:56;;;;;;;3.13;2.43;;;;;;;7.62;100.00;101163.16;5011755;28;20196;-71
2022/10/05 06:34:36;;;;;;;3.17;2.37;;;;;;;7.80;100.00;101162.19;5024806;28;21076;-71
2022/10/05 06:37:10;;;;;;;4.40;2.97;;;;;;;8.00;100.00;101166.38;5003943;28;20317;-71
2022/10/05 06:40:24;;;;;;;4.43;2.33;;;;;;;8.24;100.00;101160.16;4994282;28;20247;-71
2022/10/05 06:43:05;;;;;;;2.60;2.33;;;;;;;8.52;100.00;101158.19;4926437;29;20545;-71
2022/10/05 06:45:46;;;;;;;4.07;2.57;;;;;;;8.64;100.00;101165.03;5010057;28;20595;-70
2022/10/05 06:48:31;;;;;;;5.47;3.07;;;;;;;8.77;100.00;101168.38;5028723;28;20203;-71
2022/10/05 06:51:23;;;;;;;3.97;3.10;;;;;;;8.92;100.00;101170.81;5012378;28;20237;-71
2022/10/05 06:54:28;;;;;;;5.53;3.07;;;;;;;9.04;100.00;101172.41;5022491;28;20207;-71
2022/10/05 06:57:01;;;;;;;5.73;2.70;;;;;;;9.14;100.00;101168.81;4996761;28;20255;-71
2022/10/05 06:59:39;;;;;;;3.53;2.70;;;;;;;9.22;100.00;101176.56;5022359;28;20207;-71
2022/10/05 07:02:14;;;;;;;4.20;2.63;;;;;;;9.25;100.00;101174.78;5005782;28;20319;-71
2022/10/05 07:04:54;;;;;;;6.60;2.90;;;;;;;9.30;100.00;101190.31;5012199;28;20207;-71
2022/10/05 07:07:27;;;;;;;5.90;3.00;;;;;;;9.33;100.00;101189.44;5007965;28;20211;-71
2022/10/05 07:10:09;;;;;;;5.67;2.90;;;;;;;9.33;100.00;101179.88;5002847;28;20209;-71
2022/10/05 07:12:59;;;;;;;6.40;3.07;;;;;;;9.38;100.00;101183.28;4987453;28;20205;-71
2022/10/05 07:15:48;;;;;;;7.07;3.67;;;;;;;9.41;100.00;101187.59;5027605;28;20255;-71
2022/10/05 07:18:30;;;;;;;6.37;3.73;;;;;;;9.50;100.00;101187.50;5028978;28;20239;-71
2022/10/05 07:21:04;;;;;;;10.07;3.47;;;;;;;9.59;100.00;101192.56;5020976;28;20674;-71
2022/10/05 07:23:45;;;;;;;6.00;3.67;;;;;;;9.71;100.00;101199.38;5015117;28;20303;-71
2022/10/05 07:26:18;;;;;;;5.60;3.23;;;;;;;9.82;100.00;101196.63;5001976;28;20228;-71
2022/10/05 07:28:48;;;;;;;7.87;3.80;;;;;;;9.95;100.00;101192.94;5017650;28;20197;-71
2022/10/05 07:31:26;;;;;;;4.57;3.10;;;;;;;10.03;100.00;101198.06;5001140;28;20202;-71
2022/10/05 07:33:59;;;;;;;5.50;3.90;;;;;;;10.14;100.00;101196.13;5005328;28;20488;-71
2022/10/05 07:39:30;;;;;;;5.93;5.17;;;;;;;10.32;100.00;101207.19;5005393;28;20208;-71
2022/10/05 07:42:17;;;;;;;13.87;11.10;;;;;;;10.38;100.00;101202.75;5022086;28;20215;-71
2022/10/05 07:44:51;;;;;;;12.13;8.57;;;;;;;10.47;100.00;101193.91;5002160;28;20218;-71
2022/10/05 07:47:30;;;;;;;8.40;5.10;;;;;;;10.60;100.00;101200.63;5006794;28;20710;-71
2022/10/05 07:50:02;;;;;;;19.10;9.13;;;;;;;10.71;100.00;101195.25;5009630;28;20292;-71
2022/10/05 07:52:36;;;;;;;7.93;3.87;;;;;;;10.86;100.00;101195.88;4991581;28;20253;-71
2022/10/05 07:55:15;;;;;;;20.53;8.63;;;;;;;10.97;100.00;101197.38;5018736;28;20202;-71
2022/10/05 07:57:48;;;;;;;14.90;6.37;;;;;;;11.10;100.00;101203.22;5011666;28;20199;-71
2022/10/05 08:00:19;;;;;;;15.20;6.37;;;;;;;11.20;100.00;101208.28;4999523;28;20203;-71
2022/10/05 08:02:50;;;;;;;21.20;7.83;;;;;;;11.27;100.00;101191.59;5000871;28;20200;-71
2022/10/05 08:05:32;;;;;;;13.80;5.30;;;;;;;11.36;100.00;101191.41;5007216;28;20235;-71
2022/10/05 08:08:08;;;;;;;10.10;4.73;;;;;;;11.48;100.00;101196.38;5018075;28;20242;-71
2022/10/05 08:10:41;;;;;;;14.00;6.60;;;;;;;11.60;100.00;101199.63;5016382;28;20210;-71
2022/10/05 08:13:16;;;;;;;12.77;5.03;;;;;;;11.70;100.00;101199.41;5021122;28;20198;-70
2022/10/05 08:15:47;;;;;;;12.20;5.97;;;;;;;11.77;100.00;101201.88;5018620;28;20199;-70
2022/10/05 08:18:21;;;;;;;8.23;3.60;;;;;;;11.80;100.00;101209.63;5020699;28;20223;-69
2022/10/05 08:20:51;;;;;;;4.10;2.37;;;;;;;11.86;100.00;101199.06;5033210;23;20235;-72
2022/10/05 08:23:24;;;;;;;8.27;3.47;;;;;;;11.97;100.00;101198.84;5022353;28;20211;-73
2022/10/05 08:26:01;;;;;;;4.77;2.50;;;;;;;12.05;100.00;101191.72;5023433;28;20192;-72
2022/10/05 08:28:33;;;;;;;5.93;2.47;;;;;;;12.17;100.00;101188.81;5022868;28;20207;-72
2022/10/05 08:31:08;;;;;;;3.70;1.93;;;;;;;12.22;100.00;101181.69;5024027;28;20711;-72
2022/10/05 08:33:47;;;;;;;2.50;1.67;;;;;;;12.30;100.00;101179.75;5020161;28;20408;-72
2022/10/05 08:36:15;;;;;;;3.47;2.07;;;;;;;12.42;100.00;101186.44;5019849;28;20207;-73
2022/10/05 08:38:42;;;;;;;2.33;1.53;;;;;;;12.56;100.00;101172.16;5021537;28;20219;-72
2022/10/05 08:41:41;;;;;;;1.90;1.50;;;;;;;12.71;100.00;101176.13;5028732;28;20684;-72
2022/10/05 08:44:41;;;;;;;1.90;1.53;;;;;;;12.86;100.00;101167.88;5022712;28;20235;-72
2022/10/05 08:47:21;;;;;;;2.37;1.50;;;;;;;12.98;100.00;101172.78;4994499;28;20492;-73
2022/10/05 08:50:15;;;;;;;2.00;1.50;;;;;;;13.05;100.00;101173.44;5019659;28;20623;-72
2022/10/05 08:53:12;;;;;;;2.13;1.57;;;;;;;13.12;100.00;101174.16;5021414;28;21074;-72
2022/10/05 08:55:51;;;;;;;1.53;1.20;;;;;;;13.29;100.00;101173.69;5022877;28;20217;-72
2022/10/05 08:58:36;;;;;;;1.93;1.20;;;;;;;13.41;100.00;101174.22;5018160;28;20201;-71
2022/10/05 09:01:10;;;;;;;1.00;0.90;;;;;;;13.44;100.00;101179.38;5024307;28;20651;-72
2022/10/05 09:04:04;;;;;;;3.30;1.60;;;;;;;13.46;100.00;101175.84;5023173;28;20200;-72
2022/10/05 09:06:53;;;;;;;2.10;1.33;;;;;;;13.44;100.00;101174.13;5020888;28;20201;-71
2022/10/05 09:09:36;;;;;;;1.50;1.27;;;;;;;13.49;100.00;101162.66;5019536;28;20347;-73
2022/10/05 09:12:27;;;;;;;3.80;1.33;;;;;;;13.49;100.00;101170.50;5022745;28;20203;-72
2022/10/05 09:15:10;;;;;;;4.20;1.40;;;;;;;13.55;100.00;101176.44;5030012;28;20192;-72
2022/10/05 09:18:08;;;;;;;3.30;1.73;;;;;;;13.64;100.00;101168.28;5021483;28;20208;-70
2022/10/05 09:20:46;;;;;;;2.10;1.30;;;;;;;13.79;100.00;101171.34;5025679;28;20378;-73
2022/10/05 09:23:32;;;;;;;4.10;1.40;;;;;;;13.98;100.00;101163.75;5018917;28;20210;-73
2022/10/05 09:26:06;;;;;;;2.30;1.57;;;;;;;14.14;100.00;101159.75;5022712;28;20213;-72
2022/10/05 09:28:46;;;;;;;2.90;1.60;;;;;;;14.33;100.00;101169.63;5016942;28;20204;-72
2022/10/05 09:31:46;;;;;;;3.30;1.60;;;;;;;14.46;100.00;101164.81;5016694;28;20633;-72
2022/10/05 09:34:39;;;;;;;3.30;1.63;;;;;;;14.56;100.00;101155.72;5023243;28;20227;-72
2022/10/05 09:37:40;;;;;;;4.10;1.60;;;;;;;14.70;100.00;101145.63;5023360;28;20398;-72
2022/10/05 09:40:46;;;;;;;2.23;1.57;;;;;;;14.91;100.00;101151.06;5011044;28;20581;-72
2022/10/05 09:43:54;;;;;;;1.43;1.20;;;;;;;15.01;100.00;101146.34;4994358;28;20208;-72
2022/10/05 09:46:48;;;;;;;1.47;1.30;;;;;;;14.88;100.00;101152.03;4990011;28;20843;-72
2022/10/05 09:49:50;;;;;;;1.90;1.47;;;;;;;14.77;100.00;101154.16;5026242;28;20204;-72
2022/10/05 09:53:04;;;;;;;3.53;2.23;;;;;;;14.75;100.00;101148.13;5024310;28;20211;-73
2022/10/05 09:56:14;;;;;;;2.80;1.50;;;;;;;14.95;100.00;101139.50;4940706;28;20277;-71
2022/10/05 09:59:12;;;;;;;1.80;1.20;;;;;;;15.18;100.00;101136.06;5019098;28;20199;-71
2022/10/05 10:01:57;;;;;;;2.87;1.70;;;;;;;15.39;100.00;101136.16;5021745;28;20215;-71
2022/10/05 10:05:02;;;;;;;2.43;1.40;;;;;;;15.55;100.00;101132.06;5019659;28;20215;-72
2022/10/05 10:07:54;;;;;;;5.47;1.97;;;;;;;15.56;100.00;101125.84;5026897;28;20207;-73
2022/10/05 10:10:56;;;;;;;2.20;1.83;;;;;;;15.66;100.00;101129.84;5017981;28;20606;-72
2022/10/05 10:14:16;;;;;;;2.50;2.00;;;;;;;15.75;100.00;101125.19;5017858;28;20235;-72
2022/10/05 10:17:05;;;;;;;2.57;1.73;;;;;;;15.93;100.00;101123.59;4917918;28;20520;-73
2022/10/05 10:20:01;;;;;;;1.83;1.50;;;;;;;16.03;100.00;101123.13;5020010;28;20274;-72
2022/10/05 10:22:52;;;;;;;1.80;1.30;;;;;;;16.13;100.00;101125.38;5020058;28;20200;-73
2022/10/05 10:25:33;;;;;;;1.33;1.23;;;;;;;16.26;100.00;101114.28;5023905;28;20223;-72
2022/10/05 10:28:34;;;;;;;2.23;1.70;;;;;;;16.31;100.00;101121.16;5024239;28;20708;-72
2022/10/05 10:31:32;;;;;;;1.50;1.33;;;;;;;16.30;100.00;101115.00;5009919;28;20240;-72
2022/10/05 10:34:30;;;;;;;2.33;1.60;;;;;;;16.37;100.00;101110.34;5021045;28;20208;-72
2022/10/05 10:37:28;;;;;;;1.10;1.00;;;;;;;16.54;100.00;101109.63;5030957;28;20214;-73
2022/10/05 10:40:16;;;;;;;2.03;1.50;;;;;;;16.67;100.00;101108.16;5026562;28;20204;-73
2022/10/05 10:42:57;;;;;;;2.83;1.60;;;;;;;16.90;100.00;101098.41;5003140;28;20200;-71
2022/10/05 10:45:45;;;;;;;3.00;2.03;;;;;;;17.14;100.00;101104.38;5026460;28;20324;-72
2022/10/05 10:48:48;;;;;;;2.10;1.40;;;;;;;17.36;100.00;101101.56;5025444;28;20493;-73
2022/10/05 10:51:33;;;;;;;3.50;1.97;;;;;;;17.66;100.00;101101.03;5023747;28;20308;-72
2022/10/05 10:54:34;;;;;;;1.83;1.63;;;;;;;17.93;100.00;101102.38;5023217;28;20224;-73
2022/10/05 10:57:05;;;;;;;1.33;1.23;;;;;;;18.03;100.00;101092.22;5019045;28;20208;-73
2022/10/05 11:00:16;;;;;;;2.07;1.57;;;;;;;18.27;100.00;101098.03;5020227;28;20300;-72
2022/10/05 11:03:10;;;;;;;2.03;1.30;;;;;;;18.33;100.00;101089.81;5021781;28;20666;-72
2022/10/05 11:06:19;;;;;;;1.43;1.33;;;;;;;18.35;100.00;101097.66;5015699;28;20218;-72
2022/10/05 11:09:03;;;;;;;2.00;1.50;;;;;;;18.28;100.00;101085.72;5022822;28;20208;-72
2022/10/05 11:11:52;;;;;;;4.53;2.07;;;;;;;18.21;100.00;101086.97;5024273;28;20227;-73
2022/10/05 11:14:48;;;;;;;2.67;1.80;;;;;;;18.23;100.00;101087.72;5018512;28;20282;-72
2022/10/05 11:17:32;;;;;;;3.07;1.57;;;;;;;18.33;100.00;101094.25;5026206;28;20418;-71
2022/10/05 11:20:24;;;;;;;2.13;1.27;;;;;;;18.32;100.00;101085.44;5025217;28;20239;-73
2022/10/05 11:23:03;;;;;;;1.60;1.37;;;;;;;18.40;100.00;101087.72;5028892;28;20192;-73
2022/10/05 11:25:45;;;;;;;2.53;1.40;;;;;;;18.39;99.26;101080.72;5023340;28;20230;-73
2022/10/05 11:28:43;;;;;;;1.60;1.10;;;;;;;18.40;99.61;101079.81;5026485;28;20202;-72
2022/10/05 11:31:35;;;;;;;1.10;1.00;;;;;;;18.31;100.00;101072.34;4972747;28;20243;-72
2022/10/05 11:34:51;;;;;;;1.30;1.20;;;;;;;18.33;100.00;101065.22;5023418;28;20204;-72
2022/10/05 11:37:43;;;;;;;1.67;1.17;;;;;;;18.30;100.00;101071.50;5027304;28;20200;-73
2022/10/05 11:40:47;;;;;;;4.23;1.20;;;;;;;18.34;100.00;101064.25;5020606;28;20227;-73
2022/10/05 11:43:36;;;;;;;1.37;1.03;;;;;;;18.43;100.00;101061.13;4943388;28;20257;-73
2022/10/05 11:46:10;;;;;;;1.13;1.03;;;;;;;18.43;100.00;101050.56;5012909;28;20233;-71
2022/10/05 11:48:48;;;;;;;1.17;1.07;;;;;;;18.46;100.00;101049.59;5019031;28;20250;-72
2022/10/05 11:51:40;;;;;;;3.47;1.07;;;;;;;18.43;99.79;101052.38;5019131;28;20224;-73
2022/10/05 11:54:18;;;;;;;1.23;1.10;;;;;;;18.51;100.00;101044.91;5022190;28;20763;-72
2022/10/05 11:56:52;;;;;;;1.53;1.20;;;;;;;18.49;100.00;101046.78;5024365;28;20203;-73
2022/10/05 11:59:26;;;;;;;1.07;0.97;;;;;;;18.50;100.00;101044.06;5031553;28;20200;-72
2022/10/05 12:02:01;;;;;;;1.63;1.13;;;;;;;18.58;100.00;101042.81;5031453;28;20580;-73
2022/10/05 12:04:35;;;;;;;1.63;1.40;;;;;;;18.57;100.00;101036.66;5022199;28;20294;-73
2022/10/05 12:07:14;;;;;;;3.33;1.23;;;;;;;18.58;100.00;101041.00;5022178;28;20599;-73
2022/10/05 12:10:16;;;;;;;1.40;1.30;;;;;;;18.54;99.76;101035.03;5025788;28;20204;-73
2022/10/05 12:12:53;;;;;;;1.67;1.30;;;;;;;18.55;100.00;101030.59;5022162;28;20206;-73
2022/10/05 12:15:26;;;;;;;1.17;1.03;;;;;;;18.63;100.00;101022.28;5027238;28;20457;-72
2022/10/05 12:17:59;;;;;;;1.50;1.40;;;;;;;18.66;100.00;101022.97;5022941;28;20204;-72
2022/10/05 12:20:38;;;;;;;1.40;1.27;;;;;;;18.72;100.00;101025.28;5018885;28;20231;-71
2022/10/05 12:23:13;;;;;;;1.30;1.20;;;;;;;18.66;99.18;101022.09;5028532;28;20199;-73
2022/10/05 12:25:45;;;;;;;1.37;1.10;;;;;;;18.62;98.23;101016.13;5017411;28;20220;-73